Time;durP1;ratioP1;P1;durP2;ratioP2;P2;SDS_P1;SDS_P2;PMS_P1;PMS_P2;Temp;Humidity;BMP_temperature;BMP_pressure;BME280_temperature;BME280_humidity;BME280_pressure;Samples;Min_cycle;Max_cycle;Signal;HPM_P1;HPM_P2
2021/09/03 00:00:23;;;;;;;;;;;;;;;13.23;76.35;97434.47;30001;983;1883;-61
2021/09/03 00:00:54;;;;;;;;;;;;;;;13.23;76.42;97440.72;30001;983;1862;-60
2021/09/03 00:01:24;;;;;;;;;;;;;;;13.21;76.43;97437.47;30001;983;1879;-61
2021/09/03 00:01:55;;;;;;;;;;;;;;;13.21;76.11;97442.94;30001;983;1879;-61
2021/09/03 00:02:26;;;;;;;;;;;;;;;13.21;76.14;97442.94;30001;983;1884;-60
2021/09/03 00:02:57;;;;;;;;;;;;;;;13.22;75.99;97441.03;30001;983;1879;-60
2021/09/03 00:03:28;;;;;;;;;;;;;;;13.22;75.97;97444.56;30001;983;1866;-61
2021/09/03 00:03:59;;;;;;;;;;;;;;;13.22;76.08;97444.56;30001;983;1875;-61
2021/09/03 00:04:30;;;;;;;;;;;;;;;13.23;75.85;97442.63;30001;983;1884;-60
2021/09/03 00:05:04;;;;;;;;;;;;;;;13.22;76.08;97439.09;30001;983;1880;-60
2021/09/03 00:05:36;;;;;;;;;;;;;;;13.22;76.13;97438.28;30001;982;1884;-60
2021/09/03 00:06:06;;;;;;;;;;;;;;;13.22;75.69;97439.09;30001;982;1880;-61
2021/09/03 00:06:37;;;;;;;;;;;;;;;13.22;75.62;97444.56;30001;982;1884;-61
2021/09/03 00:07:09;;;;;;;;;;;;;;;13.22;75.75;97439.09;30001;982;1880;-61
2021/09/03 00:07:39;;;;;;;;;;;;;;;13.22;75.58;97435.56;30001;982;1884;-61
2021/09/03 00:08:10;;;;;;;;;;;;;;;13.22;75.90;97433.66;30001;983;1879;-60
2021/09/03 00:08:41;;;;;;;;;;;;;;;13.21;75.82;97432.03;30001;983;1866;-61
2021/09/03 00:09:12;;;;;;;;;;;;;;;13.21;75.73;97432.03;30001;983;1875;-61
2021/09/03 00:09:43;;;;;;;;;;;;;;;13.20;75.90;97430.41;30001;983;1884;-60
2021/09/03 00:10:15;;;;;;;;;;;;;;;13.20;75.68;97435.88;30001;983;1879;-62
2021/09/03 00:10:46;;;;;;;;;;;;;;;13.21;76.01;97436.66;30001;983;1884;-61
2021/09/03 00:11:17;;;;;;;;;;;;;;;13.19;76.00;97428.78;30001;983;1880;-60
2021/09/03 00:11:48;;;;;;;;;;;;;;;13.20;76.07;97429.59;30001;966;1901;-60
2021/09/03 00:12:18;;;;;;;;;;;;;;;13.21;75.92;97433.94;30001;982;1862;-60
2021/09/03 00:12:49;;;;;;;;;;;;;;;13.20;76.09;97435.06;30001;982;1862;-61
2021/09/03 00:13:20;;;;;;;;;;;;;;;13.19;75.96;97431.50;30001;982;1880;-61
2021/09/03 00:13:51;;;;;;;;;;;;;;;13.19;75.87;97431.50;30001;982;1884;-62
2021/09/03 00:14:22;;;;;;;;;;;;;;;13.19;76.03;97434.25;30001;982;1880;-60
2021/09/03 00:14:53;;;;;;;;;;;;;;;13.19;75.77;97428.78;30001;982;1884;-60
2021/09/03 00:15:24;;;;;;;;;;;;;;;13.19;75.95;97428.78;30001;983;1862;-61
2021/09/03 00:15:55;;;;;;;;;;;;;;;13.18;75.84;97427.16;30001;983;1862;-60
2021/09/03 00:16:26;;;;;;;;;;;;;;;13.19;75.75;97430.72;30001;983;1879;-60
2021/09/03 00:16:57;;;;;;;;;;;;;;;13.17;76.03;97430.22;30001;983;1884;-61
2021/09/03 00:17:27;;;;;;;;;;;;;;;13.15;76.07;97427.75;30001;983;1879;-61
2021/09/03 00:18:02;;;;;;;;;;;;;;;13.16;76.13;97434.06;30001;983;1793;-60
2021/09/03 00:18:33;;;;;;;;;;;;;;;13.16;76.24;97432.13;30002;983;1880;-60
2021/09/03 00:19:05;;;;;;;;;;;;;;;13.16;75.93;97434.06;30002;983;1884;-61
2021/09/03 00:19:36;;;;;;;;;;;;;;;13.16;76.16;97426.69;30001;982;1880;-60
2021/09/03 00:20:08;;;;;;;;;;;;;;;13.15;76.29;97425.03;30002;982;1884;-60
2021/09/03 00:20:39;;;;;;;;;;;;;;;13.16;76.32;97428.59;30002;982;1880;-60
2021/09/03 00:21:10;;;;;;;;;;;;;;;13.15;76.30;97419.59;30002;982;1867;-60
2021/09/03 00:21:41;;;;;;;;;;;;;;;13.16;76.18;97428.59;30002;982;1876;-61
2021/09/03 00:22:11;;;;;;;;;;;;;;;13.15;76.16;97427.75;30002;982;1884;-61
2021/09/03 00:22:42;;;;;;;;;;;;;;;13.16;76.25;97423.16;30002;982;1880;-60
2021/09/03 00:23:14;;;;;;;;;;;;;;;13.16;76.06;97426.69;30002;983;1866;-60
2021/09/03 00:23:45;;;;;;;;;;;;;;;13.17;75.92;97427.50;30002;983;1875;-60
2021/09/03 00:24:15;;;;;;;;;;;;;;;13.16;75.86;97429.41;30002;983;1884;-61
2021/09/03 00:24:46;;;;;;;;;;;;;;;13.15;75.93;97427.75;30002;983;1879;-60
2021/09/03 00:25:17;;;;;;;;;;;;;;;13.15;76.14;97421.50;30002;983;1884;-60
2021/09/03 00:25:48;;;;;;;;;;;;;;;13.15;76.02;97426.94;30002;983;1880;-61
2021/09/03 00:26:19;;;;;;;;;;;;;;;13.14;76.02;97420.69;30002;983;1884;-61
2021/09/03 00:26:50;;;;;;;;;;;;;;;13.13;76.11;97419.06;30002;983;1880;-60
2021/09/03 00:27:21;;;;;;;;;;;;;;;13.13;76.12;97424.53;30002;982;1867;-59
2021/09/03 00:27:52;;;;;;;;;;;;;;;13.15;76.50;97421.50;30002;982;1776;-61
2021/09/03 00:28:23;;;;;;;;;;;;;;;13.16;76.16;97425.87;30002;982;1867;-60
2021/09/03 00:28:53;;;;;;;;;;;;;;;13.16;76.28;97418.50;30002;982;1876;-60
2021/09/03 00:29:24;;;;;;;;;;;;;;;13.16;76.30;97418.50;30002;982;1884;-60
2021/09/03 00:29:55;;;;;;;;;;;;;;;13.16;76.08;97420.44;30002;982;1880;-60
2021/09/03 00:30:26;;;;;;;;;;;;;;;13.15;76.20;97422.31;30002;983;1884;-61
2021/09/03 00:30:57;;;;;;;;;;;;;;;13.15;76.38;97419.59;30002;983;1879;-60
2021/09/03 00:31:27;;;;;;;;;;;;;;;13.16;76.22;97420.44;30002;983;1884;-60
2021/09/03 00:31:58;;;;;;;;;;;;;;;13.15;76.47;97416.06;30002;983;1879;-60
2021/09/03 00:32:29;;;;;;;;;;;;;;;13.16;76.39;97413.06;30002;983;1884;-61
2021/09/03 00:33:00;;;;;;;;;;;;;;;13.14;76.35;97415.25;30002;983;1880;-61
2021/09/03 00:33:31;;;;;;;;;;;;;;;13.15;76.19;97418.78;30002;983;1866;-60
2021/09/03 00:34:02;;;;;;;;;;;;;;;13.14;76.25;97420.69;30002;983;1875;-61
2021/09/03 00:34:33;;;;;;;;;;;;;;;13.13;76.24;97413.62;30002;983;1884;-60
2021/09/03 00:35:04;;;;;;;;;;;;;;;13.12;76.12;97414.72;30002;982;1880;-61
2021/09/03 00:35:35;;;;;;;;;;;;;;;13.11;76.27;97415.84;30002;982;1884;-60
2021/09/03 00:36:06;;;;;;;;;;;;;;;13.11;76.32;97410.37;30002;982;1880;-59
2021/09/03 00:36:37;;;;;;;;;;;;;;;13.13;76.41;97418.25;30002;986;1884;-60
2021/09/03 00:37:08;;;;;;;;;;;;;;;13.12;76.52;97414.72;30002;982;1880;-60
2021/09/03 00:37:39;;;;;;;;;;;;;;;13.12;76.55;97411.19;30002;982;1884;-60
2021/09/03 00:38:09;;;;;;;;;;;;;;;13.12;76.16;97412.00;30002;983;1862;-60
2021/09/03 00:38:41;;;;;;;;;;;;;;;13.10;76.49;97414.22;30002;983;1879;-61
2021/09/03 00:39:12;;;;;;;;;;;;;;;13.09;76.33;97407.16;30002;983;1879;-61
2021/09/03 00:39:43;;;;;;;;;;;;;;;13.08;76.44;97410.97;30002;983;1884;-60
2021/09/03 00:40:13;;;;;;;;;;;;;;;13.07;76.67;97409.34;30002;983;1879;-61
2021/09/03 00:40:44;;;;;;;;;;;;;;;13.05;76.45;97414.28;30002;983;1884;-61
2021/09/03 00:41:15;;;;;;;;;;;;;;;13.05;76.51;97409.66;30002;983;1880;-60
2021/09/03 00:41:46;;;;;;;;;;;;;;;13.03;76.89;97414.59;30002;983;1884;-60
2021/09/03 00:42:17;;;;;;;;;;;;;;;13.04;76.53;97415.38;30002;982;1880;-60
2021/09/03 00:42:48;;;;;;;;;;;;;;;13.02;76.47;97410.25;30002;982;1884;-61
2021/09/03 00:43:19;;;;;;;;;;;;;;;13.03;76.88;97413.78;30002;982;1862;-61
2021/09/03 00:43:50;;;;;;;;;;;;;;;13.03;76.85;97408.31;30002;982;1880;-61
2021/09/03 00:44:21;;;;;;;;;;;;;;;13.03;76.46;97411.84;30002;982;1862;-60
2021/09/03 00:44:52;;;;;;;;;;;;;;;13.02;77.06;97406.69;30002;983;1879;-61
2021/09/03 00:45:23;;;;;;;;;;;;;;;13.01;76.93;97405.09;30002;983;1879;-59
2021/09/03 00:45:54;;;;;;;;;;;;;;;13.01;77.01;97405.09;30002;983;1884;-59
2021/09/03 00:46:25;;;;;;;;;;;;;;;13.00;76.83;97408.91;30002;983;1862;-61
2021/09/03 00:46:55;;;;;;;;;;;;;;;13.00;76.85;97406.19;30002;983;1879;-61
2021/09/03 00:47:26;;;;;;;;;;;;;;;13.00;77.01;97408.91;30002;983;1879;-61
2021/09/03 00:47:57;;;;;;;;;;;;;;;12.99;77.09;97407.28;30002;983;1884;-60
2021/09/03 00:48:29;;;;;;;;;;;;;;;12.99;76.97;97407.28;30002;983;1880;-59
2021/09/03 00:49:00;;;;;;;;;;;;;;;12.99;77.23;97407.28;30002;983;1884;-60
2021/09/03 00:49:31;;;;;;;;;;;;;;;12.99;76.92;97404.56;30002;983;1862;-60
2021/09/03 00:50:04;;;;;;;;;;;;;;;12.98;77.16;97414.66;30002;982;1880;-61
2021/09/03 00:50:35;;;;;;;;;;;;;;;12.98;77.09;97411.13;30002;982;1880;-61
2021/09/03 00:51:06;;;;;;;;;;;;;;;12.96;77.16;97407.88;30002;982;1884;-60
2021/09/03 00:51:38;;;;;;;;;;;;;;;12.97;77.35;97413.03;30002;982;1880;-58
2021/09/03 00:52:10;;;;;;;;;;;;;;;12.97;77.26;97414.94;30002;982;1884;-60
2021/09/03 00:52:41;;;;;;;;;;;;;;;12.98;77.33;97405.66;30002;960;1902;-60
2021/09/03 00:53:12;;;;;;;;;;;;;;;12.98;77.44;97417.37;30002;983;1884;-60
2021/09/03 00:53:44;;;;;;;;;;;;;;;12.98;77.12;97405.66;30002;983;1862;-61
2021/09/03 00:54:15;;;;;;;;;;;;;;;12.97;77.07;97409.50;30002;983;1862;-60
2021/09/03 00:54:46;;;;;;;;;;;;;;;12.97;76.97;97409.50;30002;983;1879;-61
2021/09/03 00:55:17;;;;;;;;;;;;;;;12.96;76.98;97413.31;30002;983;1884;-61
2021/09/03 00:55:49;;;;;;;;;;;;;;;12.96;77.15;97413.31;30002;983;1880;-60
2021/09/03 00:56:20;;;;;;;;;;;;;;;12.97;77.46;97404.06;30002;983;1866;-60
2021/09/03 00:56:50;;;;;;;;;;;;;;;12.97;77.34;97404.88;30002;983;1875;-59
2021/09/03 00:57:22;;;;;;;;;;;;;;;12.97;77.22;97404.06;30002;982;1884;-60
2021/09/03 00:57:53;;;;;;;;;;;;;;;12.96;77.29;97403.25;30002;982;1880;-60
2021/09/03 00:58:24;;;;;;;;;;;;;;;12.96;77.00;97400.53;30002;982;1884;-61
2021/09/03 00:58:54;;;;;;;;;;;;;;;12.97;77.32;97398.59;30002;982;1880;-60
2021/09/03 00:59:26;;;;;;;;;;;;;;;12.96;77.39;97402.44;30002;982;1884;-59
2021/09/03 00:59:57;;;;;;;;;;;;;;;12.96;77.39;97399.72;30002;983;1879;-60
2021/09/03 01:00:27;;;;;;;;;;;;;;;12.96;77.08;97407.88;30002;983;1883;-60
2021/09/03 01:00:58;;;;;;;;;;;;;;;12.95;77.36;97404.34;30002;983;1879;-60
2021/09/03 01:01:29;;;;;;;;;;;;;;;12.95;77.18;97400.81;30002;983;1866;-60
2021/09/03 01:02:00;;;;;;;;;;;;;;;12.95;77.38;97398.09;30002;983;1875;-61
2021/09/03 01:02:31;;;;;;;;;;;;;;;12.93;77.35;97397.56;30002;983;1884;-60
2021/09/03 01:03:02;;;;;;;;;;;;;;;12.93;77.02;97405.75;30002;983;1879;-59
2021/09/03 01:03:32;;;;;;;;;;;;;;;12.92;77.20;97395.94;30002;983;1884;-61
2021/09/03 01:04:04;;;;;;;;;;;;;;;12.91;77.46;97395.13;30002;983;1880;-63
2021/09/03 01:04:34;;;;;;;;;;;;;;;12.92;77.13;97401.41;30002;983;1884;-61
2021/09/03 01:05:06;;;;;;;;;;;;;;;12.92;77.52;97404.94;30002;982;1880;-59
2021/09/03 01:05:38;;;;;;;;;;;;;;;12.92;77.58;97398.69;30002;982;1884;-61
2021/09/03 01:06:09;;;;;;;;;;;;;;;12.92;77.55;97406.84;30002;982;1880;-61
2021/09/03 01:06:42;;;;;;;;;;;;;;;12.92;77.46;97395.94;30002;982;1867;-61
2021/09/03 01:07:13;;;;;;;;;;;;;;;12.92;77.36;97395.94;30002;982;1876;-61
2021/09/03 01:07:44;;;;;;;;;;;;;;;12.93;77.34;97405.75;30002;983;1883;-61
2021/09/03 01:08:15;;;;;;;;;;;;;;;12.93;77.27;97398.38;30002;983;1879;-61
2021/09/03 01:08:46;;;;;;;;;;;;;;;12.93;77.42;97400.28;30002;983;1884;-60
2021/09/03 01:09:16;;;;;;;;;;;;;;;12.94;77.29;97399.19;30002;983;1879;-61
2021/09/03 01:09:47;;;;;;;;;;;;;;;12.94;77.22;97399.19;30002;985;1884;-60
2021/09/03 01:10:19;;;;;;;;;;;;;;;12.94;77.22;97404.63;30002;983;1862;-60
2021/09/03 01:10:50;;;;;;;;;;;;;;;12.93;77.37;97397.56;30001;983;1880;-61
2021/09/03 01:11:21;;;;;;;;;;;;;;;12.93;77.38;97408.47;30001;983;1880;-61
2021/09/03 01:11:52;;;;;;;;;;;;;;;12.93;77.17;97394.84;30001;983;1884;-61
2021/09/03 01:12:23;;;;;;;;;;;;;;;12.92;77.43;97402.22;30001;982;1880;-61
2021/09/03 01:12:54;;;;;;;;;;;;;;;12.93;77.50;97397.56;30001;982;1884;-60
2021/09/03 01:13:25;;;;;;;;;;;;;;;12.92;77.52;97402.22;30001;982;1880;-60
2021/09/03 01:13:56;;;;;;;;;;;;;;;12.90;77.56;97398.97;30001;982;1884;-60
2021/09/03 01:14:27;;;;;;;;;;;;;;;12.91;77.17;97397.06;30001;982;1880;-60
2021/09/03 01:15:00;;;;;;;;;;;;;;;12.90;77.63;97404.41;30001;983;1866;-61
2021/09/03 01:15:31;;;;;;;;;;;;;;;12.89;77.36;97402.00;30001;983;1875;-60
2021/09/03 01:16:02;;;;;;;;;;;;;;;12.89;77.61;97407.44;30001;983;1884;-60
2021/09/03 01:16:32;;;;;;;;;;;;;;;12.88;77.60;97400.38;30001;983;1880;-60
2021/09/03 01:17:04;;;;;;;;;;;;;;;12.89;77.66;97404.72;30001;983;1866;-61
2021/09/03 01:17:37;;;;;;;;;;;;;;;12.89;77.28;97402.00;30001;983;1875;-60
2021/09/03 01:18:08;;;;;;;;;;;;;;;12.88;77.59;97401.19;30001;983;1884;-60
2021/09/03 01:18:38;;;;;;;;;;;;;;;12.87;77.68;97404.19;30001;983;1880;-61
2021/09/03 01:19:09;;;;;;;;;;;;;;;12.86;77.52;97403.38;30001;969;1897;-61
2021/09/03 01:19:40;;;;;;;;;;;;;;;12.85;77.51;97404.50;30001;982;1880;-60
2021/09/03 01:20:12;;;;;;;;;;;;;;;12.86;77.38;97408.03;30001;982;1867;-59
2021/09/03 01:20:42;;;;;;;;;;;;;;;12.86;77.90;97402.56;30001;982;1875;-60
2021/09/03 01:21:13;;;;;;;;;;;;;;;12.84;77.79;97399.34;30001;982;1884;-61
2021/09/03 01:21:50;;;;;;;;;;;;;;;12.84;77.81;97399.34;30001;982;1880;-60
2021/09/03 01:22:22;;;;;;;;;;;;;;;12.83;77.65;97403.16;30001;982;1884;-61
2021/09/03 01:22:53;;;;;;;;;;;;;;;12.83;77.82;97397.72;30001;983;1879;-59
2021/09/03 01:23:24;;;;;;;;;;;;;;;12.82;78.01;97401.56;30001;983;1866;-60
2021/09/03 01:23:54;;;;;;;;;;;;;;;12.81;77.84;97395.31;30001;963;1872;-60
2021/09/03 01:24:25;;;;;;;;;;;;;;;12.82;77.88;97401.56;30001;983;1884;-61
2021/09/03 01:24:56;;;;;;;;;;;;;;;12.81;77.65;97394.50;30001;983;1880;-60
2021/09/03 01:25:27;;;;;;;;;;;;;;;12.80;77.74;97398.34;30001;983;1884;-61
2021/09/03 01:26:02;;;;;;;;;;;;;;;12.82;77.75;97390.69;30001;983;1880;-60
2021/09/03 01:26:33;;;;;;;;;;;;;;;12.80;77.70;97393.69;30001;983;1866;-60
2021/09/03 01:27:04;;;;;;;;;;;;;;;12.81;77.71;97398.03;30001;982;1858;-61
2021/09/03 01:27:35;;;;;;;;;;;;;;;12.80;77.87;97396.41;30001;982;1884;-61
2021/09/03 01:28:06;;;;;;;;;;;;;;;12.80;77.83;97392.88;30001;982;1880;-61
2021/09/03 01:28:37;;;;;;;;;;;;;;;12.80;77.64;97392.88;30001;982;1884;-62
2021/09/03 01:29:08;;;;;;;;;;;;;;;12.79;78.09;97389.34;30001;982;1880;-60
2021/09/03 01:29:39;;;;;;;;;;;;;;;12.78;77.67;97390.47;30001;982;1884;-60
2021/09/03 01:30:11;;;;;;;;;;;;;;;12.78;78.09;97395.09;30001;983;1879;-60
2021/09/03 01:30:43;;;;;;;;;;;;;;;12.77;77.91;97399.72;30001;983;1884;-59
2021/09/03 01:31:14;;;;;;;;;;;;;;;12.78;78.16;97397.81;30001;983;1879;-62
2021/09/03 01:31:45;;;;;;;;;;;;;;;12.77;77.98;97398.91;30001;983;1866;-60
2021/09/03 01:32:16;;;;;;;;;;;;;;;12.76;78.27;97398.09;30001;983;1875;-60
2021/09/03 01:32:48;;;;;;;;;;;;;;;12.76;77.87;97409.00;30001;983;1884;-60
2021/09/03 01:33:19;;;;;;;;;;;;;;;12.74;78.15;97398.41;30001;983;1880;-59
2021/09/03 01:33:54;;;;;;;;;;;;;;;12.75;78.13;97397.28;30001;983;1884;-60
2021/09/03 01:34:25;;;;;;;;;;;;;;;12.72;78.04;97397.88;30001;982;1880;-60
2021/09/03 01:34:56;;;;;;;;;;;;;;;12.74;78.23;97403.84;30001;982;1884;-61
2021/09/03 01:35:27;;;;;;;;;;;;;;;12.74;78.21;97401.13;30001;982;1880;-61
2021/09/03 01:35:58;;;;;;;;;;;;;;;12.74;78.02;97401.13;30001;982;1884;-59
2021/09/03 01:36:29;;;;;;;;;;;;;;;12.73;78.32;97402.22;30001;982;1880;-60
2021/09/03 01:37:00;;;;;;;;;;;;;;;12.73;78.13;97402.22;30001;982;1867;-60
2021/09/03 01:37:31;;;;;;;;;;;;;;;12.72;78.30;97395.16;30001;983;1875;-60
2021/09/03 01:38:06;;;;;;;;;;;;;;;12.72;78.06;97400.59;30001;983;1884;-59
2021/09/03 01:38:37;;;;;;;;;;;;;;;12.72;78.35;97397.88;30001;983;1880;-61
2021/09/03 01:39:08;;;;;;;;;;;;;;;12.70;78.21;97394.66;30001;983;1884;-60
2021/09/03 01:39:39;;;;;;;;;;;;;;;12.70;78.00;97400.09;30001;983;1879;-60
2021/09/03 01:40:11;;;;;;;;;;;;;;;12.70;78.31;97394.66;30001;983;1884;-61
2021/09/03 01:40:42;;;;;;;;;;;;;;;12.70;78.48;97394.66;30001;983;1880;-60
2021/09/03 01:41:13;;;;;;;;;;;;;;;12.70;78.27;97399.28;30001;983;1884;-61
2021/09/03 01:41:44;;;;;;;;;;;;;;;12.69;78.27;97395.75;30001;982;1863;-60
2021/09/03 01:42:15;;;;;;;;;;;;;;;12.70;78.60;97388.38;30001;982;1880;-60
2021/09/03 01:42:46;;;;;;;;;;;;;;;12.70;78.24;97389.19;30001;982;1862;-60
2021/09/03 01:43:17;;;;;;;;;;;;;;;12.70;78.19;97391.91;30001;982;1880;-61
2021/09/03 01:43:48;;;;;;;;;;;;;;;12.71;78.47;97396.25;30001;982;1880;-60
2021/09/03 01:44:19;;;;;;;;;;;;;;;12.70;78.17;97391.09;30001;982;1884;-60
2021/09/03 01:44:50;;;;;;;;;;;;;;;12.69;78.54;97390.31;30001;982;1880;-60
2021/09/03 01:45:20;;;;;;;;;;;;;;;12.68;78.12;97385.97;30001;983;1884;-60
2021/09/03 01:45:52;;;;;;;;;;;;;;;12.67;78.41;97384.34;30001;983;1879;-59
2021/09/03 01:46:23;;;;;;;;;;;;;;;12.66;78.40;97393.59;30001;983;1884;-61
2021/09/03 01:46:56;;;;;;;;;;;;;;;12.66;78.55;97382.72;30001;983;1879;-60
2021/09/03 01:47:27;;;;;;;;;;;;;;;12.65;78.22;97385.72;30001;983;1884;-61
2021/09/03 01:47:59;;;;;;;;;;;;;;;12.65;78.34;97389.28;30001;983;1862;-62
2021/09/03 01:48:29;;;;;;;;;;;;;;;12.64;78.33;97384.94;30001;983;1880;-61
2021/09/03 01:49:00;;;;;;;;;;;;;;;12.63;78.60;97388.75;30001;983;1880;-60
2021/09/03 01:49:31;;;;;;;;;;;;;;;12.63;78.37;97380.59;30001;982;1884;-61
2021/09/03 01:50:03;;;;;;;;;;;;;;;12.63;78.77;97382.50;30001;982;1880;-60
2021/09/03 01:50:34;;;;;;;;;;;;;;;12.63;78.56;97386.03;30001;982;1884;-61
2021/09/03 01:51:05;;;;;;;;;;;;;;;12.62;78.60;97384.41;30001;982;1880;-62
2021/09/03 01:51:36;;;;;;;;;;;;;;;12.62;78.37;97381.69;30001;982;1867;-62
2021/09/03 01:52:07;;;;;;;;;;;;;;;12.61;78.59;97379.25;30001;983;1875;-63
2021/09/03 01:52:38;;;;;;;;;;;;;;;12.60;78.46;97386.59;30001;983;1884;-60
2021/09/03 01:53:09;;;;;;;;;;;;;;;12.61;78.58;97384.69;30001;983;1862;-61
2021/09/03 01:53:40;;;;;;;;;;;;;;;12.60;78.52;97389.34;30001;964;1898;-60
2021/09/03 01:54:11;;;;;;;;;;;;;;;12.60;78.51;97388.53;30001;983;1879;-61
2021/09/03 01:54:41;;;;;;;;;;;;;;;12.59;78.59;97381.47;30001;983;1884;-59
2021/09/03 01:55:12;;;;;;;;;;;;;;;12.59;78.78;97379.53;30001;983;1880;-61
2021/09/03 01:55:43;;;;;;;;;;;;;;;12.58;78.44;97386.09;30001;983;1884;-62
2021/09/03 01:56:14;;;;;;;;;;;;;;;12.59;78.57;97379.53;30001;983;1880;-61
2021/09/03 01:56:45;;;;;;;;;;;;;;;12.59;78.49;97385.00;30001;983;1884;-61
2021/09/03 01:57:16;;;;;;;;;;;;;;;12.59;78.81;97382.28;30001;982;1880;-60
2021/09/03 01:57:47;;;;;;;;;;;;;;;12.58;78.67;97380.66;30001;982;1884;-62
2021/09/03 01:58:17;;;;;;;;;;;;;;;12.58;78.44;97383.38;30001;982;1862;-62
2021/09/03 01:58:48;;;;;;;;;;;;;;;12.58;78.58;97379.84;30001;982;1880;-61
2021/09/03 01:59:19;;;;;;;;;;;;;;;12.57;78.88;97384.47;30001;982;1880;-60
2021/09/03 01:59:50;;;;;;;;;;;;;;;12.56;78.68;97382.84;30001;983;1883;-60
2021/09/03 02:00:21;;;;;;;;;;;;;;;12.56;78.69;97388.28;30001;983;1879;-62
2021/09/03 02:00:52;;;;;;;;;;;;;;;12.56;78.63;97382.03;30001;983;1884;-60
2021/09/03 02:01:23;;;;;;;;;;;;;;;12.58;78.97;97382.56;30001;983;1862;-60
2021/09/03 02:01:53;;;;;;;;;;;;;;;12.57;78.89;97386.37;30001;983;1879;-61
2021/09/03 02:02:24;;;;;;;;;;;;;;;12.56;79.15;97382.84;30001;983;1879;-59
2021/09/03 02:02:55;;;;;;;;;;;;;;;12.55;78.89;97386.69;30001;983;1884;-60
2021/09/03 02:03:26;;;;;;;;;;;;;;;12.55;78.72;97381.22;30001;983;1862;-61
2021/09/03 02:03:57;;;;;;;;;;;;;;;12.55;78.81;97388.59;30001;983;1880;-61
2021/09/03 02:04:28;;;;;;;;;;;;;;;12.54;78.98;97385.06;30001;982;1880;-59
2021/09/03 02:04:58;;;;;;;;;;;;;;;12.55;78.88;97380.41;30001;982;1884;-60
2021/09/03 02:05:31;;;;;;;;;;;;;;;12.54;78.83;97382.34;30001;982;1880;-60
2021/09/03 02:06:01;;;;;;;;;;;;;;;12.54;78.80;97384.25;30001;982;1884;-61
2021/09/03 02:06:32;;;;;;;;;;;;;;;12.53;79.17;97382.62;30001;982;1880;-62
2021/09/03 02:07:03;;;;;;;;;;;;;;;12.53;78.83;97383.44;30001;984;1883;-61
2021/09/03 02:07:34;;;;;;;;;;;;;;;12.55;79.15;97386.69;30001;983;1879;-61
2021/09/03 02:08:05;;;;;;;;;;;;;;;12.55;78.84;97377.69;30001;983;1884;-61
2021/09/03 02:08:36;;;;;;;;;;;;;;;12.55;79.01;97380.41;30001;983;1862;-60
2021/09/03 02:09:07;;;;;;;;;;;;;;;12.52;78.75;97376.38;30001;983;1880;-60
2021/09/03 02:09:38;;;;;;;;;;;;;;;12.52;79.07;97376.38;30001;983;1750;-60
2021/09/03 02:10:10;;;;;;;;;;;;;;;12.53;78.97;97377.19;30001;983;1879;-60
2021/09/03 02:10:40;;;;;;;;;;;;;;;12.51;79.25;97374.75;30001;983;1880;-60
2021/09/03 02:11:15;;;;;;;;;;;;;;;12.50;78.85;97378.56;30001;983;1884;-60
2021/09/03 02:11:46;;;;;;;;;;;;;;;12.50;79.24;97373.13;30001;983;1880;-61
2021/09/03 02:12:17;;;;;;;;;;;;;;;12.51;79.19;97372.03;30001;982;1867;-61
2021/09/03 02:12:47;;;;;;;;;;;;;;;12.51;79.23;97377.47;30001;982;1876;-62
2021/09/03 02:13:18;;;;;;;;;;;;;;;12.50;79.07;97372.31;30001;982;1884;-59
2021/09/03 02:13:49;;;;;;;;;;;;;;;12.49;78.88;97376.16;30001;982;1880;-60
2021/09/03 02:14:20;;;;;;;;;;;;;;;12.49;79.27;97370.69;30001;982;1884;-60
2021/09/03 02:14:51;;;;;;;;;;;;;;;12.49;79.03;97371.50;30001;983;1879;-60
2021/09/03 02:15:22;;;;;;;;;;;;;;;12.47;78.99;97371.03;30001;983;1884;-60
2021/09/03 02:15:52;;;;;;;;;;;;;;;12.47;79.19;97367.50;30001;983;1879;-60
2021/09/03 02:16:23;;;;;;;;;;;;;;;12.47;79.09;97373.75;30001;983;1884;-60
2021/09/03 02:16:54;;;;;;;;;;;;;;;12.46;78.99;97369.41;30001;983;1862;-60
2021/09/03 02:17:25;;;;;;;;;;;;;;;12.46;79.19;97368.59;30001;983;1879;-61
2021/09/03 02:17:56;;;;;;;;;;;;;;;12.47;79.23;97368.31;30001;983;1862;-59
2021/09/03 02:18:27;;;;;;;;;;;;;;;12.46;79.47;97372.13;30001;983;1862;-61
2021/09/03 02:18:58;;;;;;;;;;;;;;;12.46;79.45;97376.75;30001;983;1880;-60
2021/09/03 02:19:29;;;;;;;;;;;;;;;12.46;79.42;97372.13;30001;982;1867;-62
2021/09/03 02:20:00;;;;;;;;;;;;;;;12.45;79.27;97367.78;30001;982;1875;-60
2021/09/03 02:20:31;;;;;;;;;;;;;;;12.44;79.23;97363.44;30001;982;1884;-61
2021/09/03 02:21:02;;;;;;;;;;;;;;;12.44;79.30;97374.34;30001;982;1880;-60
2021/09/03 02:21:33;;;;;;;;;;;;;;;12.45;79.39;97370.50;30001;982;1884;-61
2021/09/03 02:22:05;;;;;;;;;;;;;;;12.46;79.10;97372.13;30001;983;1861;-60
2021/09/03 02:22:36;;;;;;;;;;;;;;;12.45;79.51;97370.50;30001;983;1879;-60
2021/09/03 02:23:07;;;;;;;;;;;;;;;12.46;79.37;97366.69;30001;983;1879;-62
2021/09/03 02:23:38;;;;;;;;;;;;;;;12.45;79.13;97365.06;30001;983;1884;-62
2021/09/03 02:24:08;;;;;;;;;;;;;;;12.46;79.17;97372.13;30001;983;1879;-62
2021/09/03 02:24:42;;;;;;;;;;;;;;;12.45;79.11;97367.78;30001;983;1884;-60
2021/09/03 02:25:13;;;;;;;;;;;;;;;12.46;79.38;97361.25;30001;983;1879;-60
2021/09/03 02:25:44;;;;;;;;;;;;;;;12.45;79.14;97365.06;30001;983;1884;-60
2021/09/03 02:26:15;;;;;;;;;;;;;;;12.45;79.12;97365.06;30001;982;1862;-60
2021/09/03 02:26:46;;;;;;;;;;;;;;;12.44;78.95;97366.16;30001;982;1880;-62
2021/09/03 02:27:16;;;;;;;;;;;;;;;12.45;79.32;97365.06;30001;982;1880;-61
2021/09/03 02:27:47;;;;;;;;;;;;;;;12.45;79.20;97365.06;30001;982;1884;-61
2021/09/03 02:28:18;;;;;;;;;;;;;;;12.45;79.37;97365.06;30001;982;1880;-62
2021/09/03 02:28:49;;;;;;;;;;;;;;;12.44;79.28;97368.88;30001;982;1884;-63
2021/09/03 02:29:20;;;;;;;;;;;;;;;12.45;79.39;97366.97;30001;982;1880;-62
2021/09/03 02:29:51;;;;;;;;;;;;;;;12.45;79.10;97369.69;30001;983;1884;-60
2021/09/03 02:30:22;;;;;;;;;;;;;;;12.44;79.20;97366.16;30001;983;1862;-60
2021/09/03 02:30:53;;;;;;;;;;;;;;;12.44;79.45;97363.44;30001;983;1879;-62
2021/09/03 02:31:24;;;;;;;;;;;;;;;12.44;79.15;97362.63;30001;983;1879;-60
2021/09/03 02:31:55;;;;;;;;;;;;;;;12.44;79.56;97363.44;30001;983;1884;-60
2021/09/03 02:32:27;;;;;;;;;;;;;;;12.43;79.51;97361.81;30001;983;1880;-61
2021/09/03 02:32:58;;;;;;;;;;;;;;;12.43;79.33;97361.81;30001;983;1884;-60
2021/09/03 02:33:29;;;;;;;;;;;;;;;12.43;79.38;97366.47;30001;983;1880;-60
2021/09/03 02:34:00;;;;;;;;;;;;;;;12.43;79.60;97372.72;30001;982;1867;-60
2021/09/03 02:34:30;;;;;;;;;;;;;;;12.43;79.48;97361.00;30001;982;1875;-60
2021/09/03 02:35:01;;;;;;;;;;;;;;;12.42;79.62;97360.19;30001;982;1884;-61
2021/09/03 02:35:32;;;;;;;;;;;;;;;12.41;79.78;97361.31;30001;982;1880;-60
2021/09/03 02:36:03;;;;;;;;;;;;;;;12.40;79.67;97367.84;30001;982;1884;-60
2021/09/03 02:36:34;;;;;;;;;;;;;;;12.40;79.98;97359.69;30001;982;1862;-60
2021/09/03 02:37:05;;;;;;;;;;;;;;;12.38;80.15;97361.88;30001;983;1879;-61
2021/09/03 02:37:36;;;;;;;;;;;;;;;12.37;79.72;97369.25;30001;983;1879;-60
2021/09/03 02:38:06;;;;;;;;;;;;;;;12.36;80.09;97362.19;30001;983;1884;-60
2021/09/03 02:38:37;;;;;;;;;;;;;;;12.36;80.08;97369.53;30001;983;1879;-60
2021/09/03 02:39:08;;;;;;;;;;;;;;;12.35;80.27;97367.91;30001;983;1884;-60
2021/09/03 02:39:39;;;;;;;;;;;;;;;12.33;80.37;97367.41;30001;983;1880;-61
2021/09/03 02:40:10;;;;;;;;;;;;;;;12.33;80.71;97364.69;30001;983;1884;-60
2021/09/03 02:40:41;;;;;;;;;;;;;;;12.31;80.82;97364.16;30001;983;1880;-60
2021/09/03 02:41:12;;;;;;;;;;;;;;;12.29;80.61;97360.91;30001;983;1884;-61
2021/09/03 02:41:43;;;;;;;;;;;;;;;12.26;80.96;97367.75;30001;982;1862;-60
2021/09/03 02:42:14;;;;;;;;;;;;;;;12.20;81.36;97357.22;30001;982;1880;-60
2021/09/03 02:42:45;;;;;;;;;;;;;;;12.17;81.41;97358.59;30001;982;1880;-61
2021/09/03 02:43:16;;;;;;;;;;;;;;;12.17;81.35;97363.22;30001;982;1884;-60
2021/09/03 02:43:47;;;;;;;;;;;;;;;12.15;81.66;97360.00;30001;982;1880;-62
2021/09/03 02:44:18;;;;;;;;;;;;;;;12.13;81.79;97357.56;30001;982;1805;-60
2021/09/03 02:44:49;;;;;;;;;;;;;;;12.10;82.08;97357.38;30001;983;1879;-61
2021/09/03 02:45:20;;;;;;;;;;;;;;;12.10;81.73;97357.38;30001;983;1884;-60
2021/09/03 02:45:51;;;;;;;;;;;;;;;12.08;81.53;97360.38;30001;983;1862;-60
2021/09/03 02:46:22;;;;;;;;;;;;;;;12.06;82.05;97357.94;30001;983;1879;-60